Time;durP1;ratioP1;P1;durP2;ratioP2;P2;SDS_P1;SDS_P2;PMS_P1;PMS_P2;Temp;Humidity;BMP_temperature;BMP_pressure;BME280_temperature;BME280_humidity;BME280_pressure;Samples;Min_cycle;Max_cycle;Signal;HPM_P1;HPM_P2
2022/12/19 00:01:21;;;;;;;51.00;25.83;;;0.40;1.00;;;;;;5133912;27;20047;-77
2022/12/19 00:03:53;;;;;;;49.20;24.92;;;0.40;1.00;;;;;;5132401;27;20047;-78
2022/12/19 00:06:19;;;;;;;53.33;25.33;;;0.50;1.00;;;;;;5121674;27;20097;-79
2022/12/19 00:08:46;;;;;;;46.92;24.52;;;0.40;1.00;;;;;;5129592;27;20555;-78
2022/12/19 00:11:13;;;;;;;49.97;24.27;;;0.40;1.00;;;;;;5141435;27;20104;-78
2022/12/19 00:13:40;;;;;;;48.90;24.15;;;0.40;1.00;;;;;;5111292;27;20050;-78
2022/12/19 00:16:12;;;;;;;51.17;24.95;;;0.50;1.00;;;;;;5116175;27;20074;-80
2022/12/19 00:18:43;;;;;;;52.45;24.05;;;0.50;1.00;;;;;;5133225;27;20038;-79
2022/12/19 00:21:11;;;;;;;56.15;26.48;;;0.50;1.00;;;;;;5138169;27;20070;-79
2022/12/19 00:23:37;;;;;;;48.33;22.90;;;0.50;1.00;;;;;;5124456;27;20042;-79
2022/12/19 00:26:12;;;;;;;51.13;24.27;;;0.50;1.00;;;;;;5128610;27;20054;-79
2022/12/19 00:28:38;;;;;;;56.20;24.58;;;0.50;1.00;;;;;;5122086;27;20038;-84
2022/12/19 00:31:04;;;;;;;50.55;24.38;;;0.60;1.00;;;;;;5139769;27;20039;-78
2022/12/19 00:33:30;;;;;;;49.95;23.95;;;0.60;1.00;;;;;;5103355;27;20054;-78
2022/12/19 00:35:57;;;;;;;48.75;24.38;;;0.50;1.00;;;;;;5134462;27;20047;-78
2022/12/19 00:38:23;;;;;;;47.08;23.98;;;0.60;1.00;;;;;;5108991;27;20051;-77
2022/12/19 00:40:48;;;;;;;45.15;23.40;;;0.60;1.00;;;;;;5116114;27;20039;-78
2022/12/19 00:43:14;;;;;;;49.65;24.42;;;0.60;1.00;;;;;;5113851;27;20051;-78
2022/12/19 00:45:43;;;;;;;51.08;24.88;;;0.60;1.00;;;;;;5130803;27;20138;-78
2022/12/19 00:48:08;;;;;;;45.40;22.85;;;0.60;1.00;;;;;;5130518;27;20195;-80
2022/12/19 00:50:34;;;;;;;43.35;22.70;;;0.60;1.00;;;;;;5123938;27;20138;-78
2022/12/19 00:52:59;;;;;;;48.35;23.98;;;0.70;1.00;;;;;;5131282;27;20074;-79
2022/12/19 00:55:25;;;;;;;45.90;23.95;;;0.70;1.00;;;;;;5088364;28;20365;-78
2022/12/19 00:57:51;;;;;;;44.15;23.88;;;0.70;1.00;;;;;;5107287;27;20050;-79
2022/12/19 01:00:17;;;;;;;46.38;24.63;;;0.70;1.00;;;;;;5109980;27;20047;-78
2022/12/19 01:02:43;;;;;;;45.17;22.75;;;0.70;1.00;;;;;;5129400;27;20051;-79
2022/12/19 01:05:10;;;;;;;47.58;23.83;;;0.70;1.00;;;;;;5110577;27;20039;-78
2022/12/19 01:07:36;;;;;;;51.45;23.65;;;0.70;1.00;;;;;;5121457;27;20548;-78
2022/12/19 01:10:03;;;;;;;47.83;23.95;;;0.70;1.00;;;;;;5113620;27;20082;-78
2022/12/19 01:12:46;;;;;;;48.75;23.48;;;0.80;1.00;;;;;;5122796;27;20135;-79
2022/12/19 01:15:14;;;;;;;45.50;23.70;;;0.70;1.00;;;;;;5130747;27;20034;-80
2022/12/19 01:17:40;;;;;;;47.08;23.23;;;0.70;1.00;;;;;;5129015;27;20051;-79
2022/12/19 01:20:06;;;;;;;48.78;23.20;;;0.80;1.00;;;;;;5131451;27;20076;-79
2022/12/19 01:22:32;;;;;;;46.70;23.48;;;0.80;1.00;;;;;;5106144;28;20096;-82
2022/12/19 01:24:57;;;;;;;44.65;23.08;;;0.80;1.00;;;;;;5122347;28;20039;-81
2022/12/19 01:27:23;;;;;;;49.78;24.00;;;0.80;1.00;;;;;;5108662;28;20047;-81
2022/12/19 01:29:49;;;;;;;50.00;24.63;;;0.80;1.00;;;;;;5119795;27;20051;-80
2022/12/19 01:32:14;;;;;;;49.30;25.20;;;0.80;1.00;;;;;;5118687;27;20049;-78
2022/12/19 01:34:40;;;;;;;55.88;26.30;;;0.90;1.00;;;;;;5093748;27;20043;-79
2022/12/19 01:37:06;;;;;;;49.83;25.13;;;0.90;1.00;;;;;;5129014;27;20042;-79
2022/12/19 01:39:31;;;;;;;48.97;24.63;;;0.90;1.00;;;;;;5105718;27;20047;-84
2022/12/19 01:41:57;;;;;;;46.42;23.27;;;0.90;1.00;;;;;;5095744;27;20046;-79
2022/12/19 01:44:24;;;;;;;49.17;24.10;;;0.90;1.00;;;;;;5131211;27;20042;-80
2022/12/19 01:46:53;;;;;;;48.00;23.33;;;1.00;1.00;;;;;;5109827;27;20072;-78
2022/12/19 01:49:31;;;;;;;47.67;23.60;;;1.00;1.00;;;;;;5126728;27;20043;-78
2022/12/19 01:52:00;;;;;;;48.35;24.48;;;1.10;1.00;;;;;;5129765;27;20050;-79
2022/12/19 01:54:34;;;;;;;47.00;24.13;;;1.10;1.00;;;;;;5126065;28;20395;-80
2022/12/19 01:57:01;;;;;;;47.53;23.25;;;1.10;1.00;;;;;;5129032;27;20058;-79
2022/12/19 01:59:47;;;;;;;51.08;24.58;;;1.10;1.00;;;;;;5119356;28;20047;-80
2022/12/19 02:02:34;;;;;;;46.88;22.83;;;1.20;1.00;;;;;;5121732;27;20065;-79
2022/12/19 02:05:00;;;;;;;47.30;22.30;;;1.20;1.00;;;;;;5098732;28;20412;-79
2022/12/19 02:07:27;;;;;;;52.65;25.80;;;1.20;1.00;;;;;;5123721;27;20519;-80
2022/12/19 02:09:55;;;;;;;50.88;24.40;;;1.20;1.00;;;;;;5131084;27;20069;-81
2022/12/19 02:12:23;;;;;;;49.25;23.70;;;1.20;1.00;;;;;;5126964;27;20153;-82
2022/12/19 02:14:49;;;;;;;50.80;25.65;;;1.30;1.00;;;;;;5113483;27;20055;-81
2022/12/19 02:17:51;;;;;;;50.53;24.42;;;1.30;1.00;;;;;;5110770;27;20039;-81
2022/12/19 02:20:22;;;;;;;48.83;23.55;;;1.30;1.00;;;;;;5126569;27;20035;-80
2022/12/19 02:23:15;;;;;;;53.97;25.25;;;1.30;1.00;;;;;;5123019;27;20038;-81
2022/12/19 02:26:09;;;;;;;50.70;25.83;;;1.40;1.00;;;;;;5116719;27;20077;-80
2022/12/19 02:28:38;;;;;;;60.70;27.65;;;1.40;1.00;;;;;;5133107;27;20118;-80
2022/12/19 02:31:21;;;;;;;62.90;27.02;;;1.40;1.00;;;;;;5116400;27;20077;-81
2022/12/19 02:34:06;;;;;;;65.55;29.70;;;1.40;1.00;;;;;;5127130;27;20433;-78
2022/12/19 02:36:55;;;;;;;72.85;30.75;;;1.40;1.00;;;;;;5110331;27;20502;-81
2022/12/19 02:39:52;;;;;;;75.25;30.23;;;1.40;5.30;;;;;;5124191;27;20043;-81
2022/12/19 02:42:24;;;;;;;;;;;1.40;11.50;;;;;;5129778;27;20043;-81
2022/12/19 02:44:51;;;;;;;69.88;30.45;;;1.40;20.60;;;;;;5127998;27;19926;-79
2022/12/19 02:47:20;;;;;;;75.68;31.48;;;1.40;29.30;;;;;;5109393;27;20046;-80
2022/12/19 02:49:46;;;;;;;83.20;32.53;;;1.40;33.10;;;;;;5130980;27;20050;-80
2022/12/19 02:52:31;;;;;;;90.35;32.88;;;1.40;31.70;;;;;;5116932;27;20423;-82
2022/12/19 02:55:09;;;;;;;88.43;32.63;;;1.50;35.60;;;;;;5121552;27;20391;-79
2022/12/19 02:57:41;;;;;;;81.38;33.05;;;1.50;39.40;;;;;;5131179;27;20073;-80
2022/12/19 03:00:24;;;;;;;94.07;34.42;;;1.50;43.00;;;;;;5118609;27;20162;-79
2022/12/19 03:03:14;;;;;;;102.57;34.78;;;1.50;49.60;;;;;;5114281;27;20054;-79
2022/12/19 03:06:17;;;;;;;100.13;34.72;;;1.50;54.70;;;;;;5133131;27;20057;-79
2022/12/19 03:08:54;;;;;;;98.63;35.75;;;1.60;64.30;;;;;;5070990;27;20070;-79
2022/12/19 03:11:22;;;;;;;100.15;36.47;;;1.50;69.40;;;;;;5113487;27;20044;-79
2022/12/19 03:13:56;;;;;;;110.68;38.55;;;1.60;72.30;;;;;;5112097;27;20506;-85
2022/12/19 03:16:23;;;;;;;109.47;37.35;;;1.60;76.30;;;;;;5134370;27;20034;-79
2022/12/19 03:18:50;;;;;;;101.75;37.78;;;1.60;79.30;;;;;;5116147;27;20046;-81
2022/12/19 03:21:33;;;;;;;99.95;36.85;;;1.60;81.40;;;;;;5124247;27;20452;-79
2022/12/19 03:24:00;;;;;;;107.35;36.70;;;1.60;84.00;;;;;;5119426;27;20038;-80
2022/12/19 03:26:30;;;;;;;103.03;37.58;;;1.80;90.90;;;;;;5120605;27;20054;-80
2022/12/19 03:29:12;;;;;;;93.97;36.83;;;1.70;91.00;;;;;;5100651;27;20046;-78
2022/12/19 03:31:39;;;;;;;117.30;38.60;;;1.80;95.40;;;;;;5129962;27;20079;-79
2022/12/19 03:34:18;;;;;;;111.43;41.30;;;1.80;97.30;;;;;;5099986;27;20045;-79
2022/12/19 03:36:48;;;;;;;101.60;37.00;;;1.90;98.70;;;;;;5129398;27;20046;-82
2022/12/19 03:39:16;;;;;;;101.28;37.53;;;1.90;99.10;;;;;;5124622;27;20088;-80
2022/12/19 03:44:34;;;;;;;115.47;40.22;;;1.90;99.90;;;;;;5111901;27;20173;-80
2022/12/19 03:47:13;;;;;;;113.28;39.28;;;2.00;99.90;;;;;;5131425;27;20046;-78
2022/12/19 03:49:39;;;;;;;117.80;41.13;;;2.10;99.90;;;;;;5107500;27;20046;-79
2022/12/19 03:52:30;;;;;;;115.00;41.47;;;2.10;99.90;;;;;;5097890;27;20047;-81
2022/12/19 03:55:22;;;;;;;114.22;40.55;;;2.10;99.90;;;;;;5110273;27;20050;-79
2022/12/19 03:58:05;;;;;;;110.38;40.20;;;2.20;99.90;;;;;;5120472;27;20115;-78
2022/12/19 04:00:34;;;;;;;121.35;44.08;;;2.20;99.90;;;;;;5122122;27;20143;-78
2022/12/19 04:03:00;;;;;;;124.75;44.05;;;2.20;99.90;;;;;;5128278;27;20479;-77
2022/12/19 04:05:27;;;;;;;110.07;40.83;;;2.30;99.90;;;;;;5114758;27;20065;-80
2022/12/19 04:07:59;;;;;;;110.25;42.08;;;2.30;99.90;;;;;;5131883;27;20086;-83
2022/12/19 04:10:26;;;;;;;114.28;41.80;;;2.40;99.90;;;;;;5115218;27;20483;-78
2022/12/19 04:13:10;;;;;;;117.95;42.70;;;2.40;99.90;;;;;;5114322;27;20092;-80
2022/12/19 04:15:48;;;;;;;126.20;43.53;;;2.40;99.90;;;;;;5121769;27;20093;-78
2022/12/19 04:18:17;;;;;;;113.05;43.60;;;2.40;99.90;;;;;;5123348;27;20049;-78
2022/12/19 04:20:46;;;;;;;110.45;41.80;;;2.40;99.90;;;;;;5122763;27;20039;-78
2022/12/19 04:23:35;;;;;;;112.90;42.08;;;2.50;99.90;;;;;;5112835;27;20043;-79
2022/12/19 04:26:04;;;;;;;119.25;42.65;;;2.50;99.90;;;;;;5114454;27;20054;-80
2022/12/19 04:28:35;;;;;;;125.57;43.75;;;2.50;99.90;;;;;;5132071;27;20051;-78
2022/12/19 04:31:01;;;;;;;111.60;42.20;;;2.60;99.90;;;;;;5105172;27;20484;-79
2022/12/19 04:33:27;;;;;;;121.93;42.90;;;2.60;99.90;;;;;;5110221;27;20050;-77
2022/12/19 04:35:53;;;;;;;107.82;42.03;;;2.60;99.90;;;;;;5124539;27;20224;-77
2022/12/19 04:38:19;;;;;;;115.53;41.58;;;2.60;99.90;;;;;;5108806;27;20089;-78
2022/12/19 04:40:44;;;;;;;109.15;41.30;;;2.70;99.90;;;;;;5121061;27;20086;-78
2022/12/19 04:43:10;;;;;;;105.82;41.47;;;2.70;99.90;;;;;;5135665;27;20035;-77
2022/12/19 04:45:36;;;;;;;123.25;44.42;;;2.80;99.90;;;;;;5140285;27;20051;-80
2022/12/19 04:48:02;;;;;;;122.28;44.22;;;2.70;99.90;;;;;;5114972;27;20139;-78
2022/12/19 04:50:27;;;;;;;115.85;46.53;;;2.70;99.90;;;;;;5124612;27;20059;-78
2022/12/19 04:52:56;;;;;;;117.30;44.67;;;2.70;99.90;;;;;;5128432;27;20050;-78
2022/12/19 04:55:21;;;;;;;122.97;43.35;;;2.70;99.90;;;;;;5125840;27;20039;-77
2022/12/19 04:57:47;;;;;;;118.65;44.78;;;2.80;99.90;;;;;;5124240;27;20050;-77
2022/12/19 05:00:13;;;;;;;113.68;43.17;;;2.80;99.90;;;;;;5126573;27;20090;-79
2022/12/19 05:02:40;;;;;;;111.07;42.03;;;2.80;99.90;;;;;;5123721;27;20051;-78
2022/12/19 05:05:06;;;;;;;112.35;43.63;;;2.80;99.90;;;;;;5118062;27;20389;-78
2022/12/19 05:07:32;;;;;;;116.60;43.95;;;2.80;99.90;;;;;;5123872;27;20044;-81
2022/12/19 05:09:59;;;;;;;113.40;42.72;;;2.80;99.90;;;;;;5121929;27;20047;-77
2022/12/19 05:12:24;;;;;;;109.28;42.67;;;2.90;99.90;;;;;;5117649;28;20043;-78
2022/12/19 05:14:50;;;;;;;118.82;43.97;;;2.80;99.90;;;;;;5123271;28;20549;-78
2022/12/19 05:17:16;;;;;;;108.55;42.35;;;2.90;99.90;;;;;;5126741;28;20074;-78
2022/12/19 05:19:41;;;;;;;129.00;44.78;;;2.90;99.90;;;;;;5090301;28;20035;-78
2022/12/19 05:22:07;;;;;;;129.65;43.85;;;2.90;99.90;;;;;;5121488;28;20076;-78
2022/12/19 05:24:33;;;;;;;124.47;45.15;;;2.90;99.90;;;;;;5104637;28;20140;-78
2022/12/19 05:26:58;;;;;;;139.98;45.45;;;2.90;99.90;;;;;;5120945;28;20082;-79
2022/12/19 05:29:24;;;;;;;122.40;44.20;;;2.90;99.90;;;;;;5082761;28;20039;-80
2022/12/19 05:31:50;;;;;;;122.25;42.63;;;3.00;99.90;;;;;;5106136;28;20071;-78
2022/12/19 05:34:15;;;;;;;123.22;45.42;;;3.00;99.90;;;;;;5109399;28;20476;-81
2022/12/19 05:36:41;;;;;;;109.75;41.20;;;3.00;99.90;;;;;;5104176;28;20507;-78
2022/12/19 05:39:06;;;;;;;115.18;42.45;;;3.00;99.90;;;;;;5103136;28;20129;-85
2022/12/19 05:41:32;;;;;;;109.32;40.88;;;3.10;99.90;;;;;;5122757;28;20120;-78
2022/12/19 05:43:58;;;;;;;119.25;42.60;;;3.10;99.90;;;;;;5123211;28;20111;-78
2022/12/19 05:46:24;;;;;;;128.77;44.38;;;3.10;99.90;;;;;;5127778;28;20165;-78
2022/12/19 05:48:50;;;;;;;120.60;42.78;;;3.10;99.90;;;;;;5123979;27;20125;-81
2022/12/19 05:51:16;;;;;;;114.60;41.95;;;3.10;99.90;;;;;;5118444;27;20150;-79
2022/12/19 05:53:42;;;;;;;127.22;42.08;;;3.20;99.90;;;;;;5125232;27;20042;-79
2022/12/19 05:56:09;;;;;;;113.90;40.97;;;3.20;99.90;;;;;;5111036;27;20035;-83
2022/12/19 05:58:35;;;;;;;122.07;42.65;;;3.30;99.90;;;;;;5122748;27;20392;-76
2022/12/19 06:01:06;;;;;;;98.78;37.38;;;3.20;99.90;;;;;;5139715;27;20054;-78
2022/12/19 06:03:32;;;;;;;117.53;41.17;;;3.20;99.90;;;;;;5123730;27;20074;-75
2022/12/19 06:06:02;;;;;;;103.75;38.58;;;3.30;99.90;;;;;;5143887;27;20495;-75
2022/12/19 06:08:27;;;;;;;114.32;40.30;;;3.30;99.90;;;;;;5102452;27;20051;-77
2022/12/19 06:10:53;;;;;;;108.35;38.65;;;3.30;99.90;;;;;;5107233;27;20058;-75
2022/12/19 06:13:18;;;;;;;117.25;40.72;;;3.30;99.90;;;;;;5131490;27;20043;-79
2022/12/19 06:15:44;;;;;;;112.18;40.97;;;3.40;99.90;;;;;;5132160;27;20081;-75
2022/12/19 06:18:10;;;;;;;158.75;42.90;;;3.40;99.90;;;;;;5117216;27;20050;-81
2022/12/19 06:20:36;;;;;;;113.60;39.15;;;3.50;99.90;;;;;;5122496;27;20068;-78
2022/12/19 06:23:01;;;;;;;117.35;40.58;;;3.50;99.90;;;;;;5130146;27;20090;-75
2022/12/19 06:25:27;;;;;;;111.13;38.88;;;3.50;99.90;;;;;;5131454;27;20053;-76
2022/12/19 06:27:52;;;;;;;110.40;38.42;;;3.50;99.90;;;;;;5134516;27;20053;-78
2022/12/19 06:30:18;;;;;;;111.20;37.45;;;3.50;99.90;;;;;;5132659;27;20043;-78
2022/12/19 06:32:44;;;;;;;118.25;40.38;;;3.60;99.90;;;;;;5096503;27;20039;-77
2022/12/19 06:35:09;;;;;;;105.60;38.10;;;3.60;99.90;;;;;;5146771;27;20034;-76
2022/12/19 06:37:35;;;;;;;98.05;37.40;;;3.70;99.90;;;;;;5125702;27;20429;-76
2022/12/19 06:40:01;;;;;;;108.80;38.25;;;3.70;99.90;;;;;;5113551;27;20491;-78
2022/12/19 06:42:26;;;;;;;106.35;37.60;;;3.70;99.90;;;;;;5117774;27;20193;-77
2022/12/19 06:44:54;;;;;;;99.70;35.80;;;3.80;99.90;;;;;;5131841;27;20038;-78
2022/12/19 06:47:21;;;;;;;86.35;33.05;;;3.80;99.90;;;;;;5135091;27;20492;-76
2022/12/19 06:49:48;;;;;;;87.90;32.70;;;3.80;99.90;;;;;;5113411;27;20573;-76
2022/12/19 06:52:15;;;;;;;88.35;33.08;;;3.80;99.90;;;;;;5105715;27;20051;-77
2022/12/19 06:54:41;;;;;;;94.20;32.45;;;3.90;99.90;;;;;;5107194;27;20074;-80
2022/12/19 06:57:07;;;;;;;92.30;33.17;;;3.90;99.90;;;;;;5114406;27;20074;-77
2022/12/19 06:59:32;;;;;;;74.60;30.08;;;4.00;99.90;;;;;;5150139;27;20050;-78
2022/12/19 07:01:58;;;;;;;81.15;30.02;;;4.00;99.90;;;;;;5116924;27;20076;-78
2022/12/19 07:04:34;;;;;;;71.93;28.77;;;4.00;99.90;;;;;;5131380;27;20077;-77
2022/12/19 07:07:00;;;;;;;86.70;31.27;;;4.10;99.90;;;;;;5118168;27;20051;-77
2022/12/19 07:09:28;;;;;;;86.60;31.20;;;4.10;99.90;;;;;;5129515;27;20396;-78
2022/12/19 07:11:54;;;;;;;84.80;31.80;;;4.20;99.90;;;;;;5117655;27;20058;-78
2022/12/19 07:14:19;;;;;;;95.63;33.58;;;4.10;99.90;;;;;;5116924;27;20050;-77
2022/12/19 07:16:47;;;;;;;91.78;32.10;;;4.20;99.90;;;;;;5101046;27;20060;-78
2022/12/19 07:19:13;;;;;;;82.63;31.40;;;4.20;99.90;;;;;;5134271;27;20748;-78
2022/12/19 07:21:39;;;;;;;68.75;28.25;;;4.20;99.90;;;;;;5114430;27;20102;-78
2022/12/19 07:24:06;;;;;;;74.63;28.92;;;4.20;99.90;;;;;;5106452;27;20387;-78
2022/12/19 07:26:32;;;;;;;86.60;30.00;;;4.20;99.90;;;;;;5130990;27;20062;-78
2022/12/19 07:28:58;;;;;;;83.13;31.23;;;4.30;99.90;;;;;;5117418;27;20562;-77
2022/12/19 07:31:24;;;;;;;76.82;28.42;;;4.30;99.90;;;;;;5123534;27;20050;-78
2022/12/19 07:33:50;;;;;;;85.05;30.65;;;4.30;99.90;;;;;;5150176;27;20599;-77
2022/12/19 07:36:15;;;;;;;79.22;29.60;;;4.30;99.90;;;;;;5134016;27;20088;-78
2022/12/19 07:38:41;;;;;;;69.05;26.65;;;4.30;99.90;;;;;;5111862;27;20321;-78
2022/12/19 07:41:07;;;;;;;107.10;32.90;;;4.40;99.90;;;;;;5128877;27;20130;-78
2022/12/19 07:43:32;;;;;;;90.28;30.45;;;4.30;99.90;;;;;;5129873;27;20047;-78
2022/12/19 07:45:58;;;;;;;101.30;32.13;;;4.40;99.90;;;;;;5110958;27;20134;-77
2022/12/19 07:48:24;;;;;;;92.05;31.55;;;4.40;99.90;;;;;;5095997;27;20046;-83
2022/12/19 07:50:49;;;;;;;82.80;29.55;;;4.40;99.90;;;;;;5110371;27;20050;-77
2022/12/19 07:53:15;;;;;;;75.95;28.75;;;4.40;99.90;;;;;;5099155;27;20043;-77
2022/12/19 07:55:41;;;;;;;81.43;28.08;;;4.40;99.90;;;;;;5094639;27;20066;-80
2022/12/19 07:58:09;;;;;;;79.07;29.17;;;4.50;99.90;;;;;;5127840;27;20074;-77
2022/12/19 08:00:35;;;;;;;77.82;28.70;;;4.50;99.90;;;;;;5115543;27;20491;-78
2022/12/19 08:03:01;;;;;;;88.82;30.30;;;4.50;99.90;;;;;;5133839;27;20046;-79
2022/12/19 08:05:27;;;;;;;84.00;29.65;;;4.50;99.90;;;;;;5116144;27;20053;-78
2022/12/19 08:07:53;;;;;;;62.03;26.45;;;4.60;99.90;;;;;;5132064;27;20095;-78
2022/12/19 08:10:21;;;;;;;83.00;28.88;;;4.60;99.90;;;;;;5115717;27;20047;-79
2022/12/19 08:12:47;;;;;;;74.68;28.48;;;4.80;99.90;;;;;;5114375;27;20447;-78
2022/12/19 08:15:13;;;;;;;73.35;28.05;;;4.70;99.90;;;;;;5114791;27;20053;-79
2022/12/19 08:17:39;;;;;;;77.43;28.15;;;4.70;99.90;;;;;;5114044;27;20053;-79
2022/12/19 08:20:10;;;;;;;62.63;25.85;;;4.70;99.90;;;;;;5132992;27;20039;-79
2022/12/19 08:22:36;;;;;;;74.15;28.38;;;4.80;99.90;;;;;;5120591;27;20047;-78
2022/12/19 08:25:02;;;;;;;61.17;26.40;;;4.80;99.90;;;;;;5113077;27;20073;-78
2022/12/19 08:27:28;;;;;;;64.10;25.55;;;4.90;99.90;;;;;;5120548;27;20468;-85
2022/12/19 08:29:53;;;;;;;79.30;27.25;;;4.90;99.90;;;;;;5114841;27;20086;-78
2022/12/19 08:32:19;;;;;;;75.60;28.20;;;5.00;99.90;;;;;;5107469;27;20123;-78
2022/12/19 08:34:45;;;;;;;60.83;25.33;;;5.00;99.90;;;;;;5110152;27;20050;-79
2022/12/19 08:37:11;;;;;;;62.25;25.23;;;5.00;99.90;;;;;;5112022;27;20046;-78
2022/12/19 08:39:36;;;;;;;61.20;25.75;;;5.10;99.90;;;;;;5125608;27;20053;-78
2022/12/19 08:42:02;;;;;;;60.83;25.48;;;5.10;99.90;;;;;;5116681;27;20818;-79
2022/12/19 08:44:28;;;;;;;52.20;23.23;;;5.20;99.90;;;;;;5118881;27;20582;-79
2022/12/19 08:46:54;;;;;;;52.13;24.00;;;5.30;99.90;;;;;;5103842;27;20047;-79
2022/12/19 08:49:19;;;;;;;63.00;25.33;;;5.30;99.90;;;;;;5097213;27;20075;-78
2022/12/19 08:51:45;;;;;;;72.35;38.03;;;5.30;99.90;;;;;;5120801;27;20047;-78
2022/12/19 08:54:11;;;;;;;63.65;31.13;;;5.40;99.90;;;;;;5115905;27;20046;-78
2022/12/19 08:56:37;;;;;;;74.63;37.13;;;5.40;99.90;;;;;;5116153;27;20486;-78
2022/12/19 08:59:03;;;;;;;59.15;26.30;;;5.40;99.90;;;;;;5115291;27;20054;-79
2022/12/19 09:01:29;;;;;;;79.45;33.10;;;5.40;99.90;;;;;;5151354;27;20051;-78
2022/12/19 09:03:58;;;;;;;71.07;31.52;;;5.40;99.90;;;;;;5141078;27;20050;-80
2022/12/19 09:06:24;;;;;;;70.85;29.40;;;5.50;99.90;;;;;;5146277;27;20133;-81
2022/12/19 09:08:49;;;;;;;78.70;30.33;;;5.50;99.90;;;;;;5123910;27;20062;-79
2022/12/19 09:11:18;;;;;;;56.35;26.40;;;5.50;99.90;;;;;;5128711;27;20544;-78
2022/12/19 09:13:44;;;;;;;86.28;37.97;;;5.60;99.90;;;;;;5125093;27;20058;-80
2022/12/19 09:16:15;;;;;;;60.22;28.60;;;5.60;99.90;;;;;;5132046;27;20368;-79
2022/12/19 09:18:43;;;;;;;71.18;29.00;;;5.60;99.90;;;;;;5130398;27;20066;-80
2022/12/19 09:21:08;;;;;;;67.38;27.65;;;5.70;99.90;;;;;;5130009;27;20042;-81
2022/12/19 09:23:35;;;;;;;65.18;30.35;;;5.70;99.90;;;;;;5130922;27;20077;-79
2022/12/19 09:26:09;;;;;;;67.18;31.00;;;5.70;99.90;;;;;;5132676;27;20050;-79
2022/12/19 09:28:36;;;;;;;87.07;37.38;;;5.70;99.90;;;;;;5136704;27;20611;-83
2022/12/19 09:31:09;;;;;;;68.05;31.20;;;5.70;99.90;;;;;;5156364;27;20050;-79
2022/12/19 09:33:35;;;;;;;75.05;33.33;;;5.80;99.90;;;;;;5119615;27;20043;-80
2022/12/19 09:36:01;;;;;;;75.15;32.42;;;6.00;99.90;;;;;;5115689;27;20523;-80
2022/12/19 09:38:28;;;;;;;67.07;31.35;;;6.00;99.90;;;;;;5117722;27;20057;-79
2022/12/19 09:40:57;;;;;;;67.50;31.40;;;6.00;99.90;;;;;;5142558;27;20047;-79
2022/12/19 09:44:00;;;;;;;73.13;31.27;;;6.10;99.90;;;;;;5135531;27;20118;-81
2022/12/19 09:46:50;;;;;;;87.10;33.80;;;6.10;99.90;;;;;;5132455;27;20496;-78
2022/12/19 09:49:19;;;;;;;90.72;33.75;;;6.10;99.90;;;;;;5111953;27;20054;-79
2022/12/19 09:51:55;;;;;;;72.75;32.60;;;6.10;99.90;;;;;;5105793;27;20078;-79
2022/12/19 09:54:24;;;;;;;;;;;6.10;99.90;;;;;;5136339;27;20122;-79
2022/12/19 09:56:57;;;;;;;72.07;30.75;;;6.20;99.90;;;;;;5136443;27;19923;-78
2022/12/19 09:59:26;;;;;;;69.72;32.03;;;6.20;99.90;;;;;;5129576;27;20114;-80
2022/12/19 10:02:16;;;;;;;80.57;33.30;;;6.20;99.90;;;;;;5106015;27;20051;-77
2022/12/19 10:04:49;;;;;;;78.25;34.13;;;6.20;99.90;;;;;;5123667;27;20050;-84
2022/12/19 10:07:18;;;;;;;70.93;32.35;;;6.20;99.90;;;;;;5118341;27;20078;-78
2022/12/19 10:09:44;;;;;;;78.10;35.13;;;6.30;99.90;;;;;;5118706;27;20042;-79
2022/12/19 10:12:31;;;;;;;71.88;32.35;;;6.40;99.90;;;;;;5105341;27;20034;-77
2022/12/19 10:15:03;;;;;;;71.95;31.02;;;6.40;99.90;;;;;;5114414;27;20059;-77
2022/12/19 10:17:56;;;;;;;70.13;31.83;;;6.40;99.90;;;;;;5119833;27;20043;-79
2022/12/19 10:20:37;;;;;;;84.28;33.60;;;6.50;99.90;;;;;;5131631;27;20042;-78
2022/12/19 10:23:43;;;;;;;70.47;31.13;;;6.50;99.90;;;;;;5133147;27;20711;-78
2022/12/19 10:26:19;;;;;;;61.85;29.42;;;6.60;99.90;;;;;;5086812;27;20055;-77
2022/12/19 10:28:48;;;;;;;;;;;6.60;99.90;;;;;;5134223;27;20058;-85
2022/12/19 10:31:38;;;;;;;68.28;30.35;;;6.60;99.90;;;;;;5135096;27;20418;-78
2022/12/19 10:34:17;;;;;;;73.45;37.47;;;6.60;99.90;;;;;;5125065;27;20069;-78
2022/12/19 10:36:45;;;;;;;79.53;33.70;;;6.60;99.90;;;;;;5121382;27;20202;-78
2022/12/19 10:39:39;;;;;;;70.78;32.10;;;6.70;99.90;;;;;;5104803;27;20047;-78
2022/12/19 10:42:56;;;;;;;56.63;29.05;;;6.70;99.90;;;;;;5135011;27;20043;-77
2022/12/19 10:45:23;;;;;;;68.60;31.33;;;6.70;99.90;;;;;;5124880;27;20039;-77
2022/12/19 10:47:53;;;;;;;57.03;30.42;;;6.80;99.90;;;;;;5110332;27;20134;-85
2022/12/19 10:50:29;;;;;;;72.35;34.70;;;6.70;99.90;;;;;;5122560;27;20069;-78
2022/12/19 10:53:06;;;;;;;50.30;27.85;;;6.80;99.90;;;;;;5106066;27;20088;-78
2022/12/19 10:55:45;;;;;;;76.28;33.40;;;6.80;99.90;;;;;;5110949;27;20047;-85
2022/12/19 10:58:18;;;;;;;66.07;33.75;;;6.90;99.90;;;;;;5112162;27;20051;-79
2022/12/19 11:01:04;;;;;;;60.47;32.10;;;6.90;99.90;;;;;;5116226;27;20081;-80
2022/12/19 11:03:32;;;;;;;60.47;28.98;;;6.90;99.90;;;;;;5128555;27;20054;-77
2022/12/19 11:05:59;;;;;;;76.10;36.28;;;6.90;99.90;;;;;;5151899;27;20047;-79
2022/12/19 11:08:30;;;;;;;59.72;30.00;;;6.90;99.90;;;;;;5114288;27;20070;-78
2022/12/19 11:11:04;;;;;;;55.20;29.63;;;7.00;99.90;;;;;;5111340;27;20046;-79
2022/12/19 11:13:33;;;;;;;51.45;27.40;;;7.00;99.90;;;;;;5116823;27;20055;-78
2022/12/19 11:16:02;;;;;;;54.63;27.77;;;7.00;99.90;;;;;;5128042;27;20511;-78
2022/12/19 11:18:44;;;;;;;56.25;26.90;;;7.10;99.90;;;;;;5134024;27;20046;-77
2022/12/19 11:21:12;;;;;;;47.25;26.63;;;7.10;99.90;;;;;;5108870;27;20070;-79
2022/12/19 11:24:10;;;;;;;66.75;33.30;;;7.10;99.90;;;;;;5120640;27;20043;-80
2022/12/19 11:26:39;;;;;;;61.40;32.58;;;7.10;99.90;;;;;;5130217;27;20066;-81
2022/12/19 11:29:22;;;;;;;58.50;33.78;;;7.10;99.90;;;;;;5127079;27;20040;-81
2022/12/19 11:31:53;;;;;;;55.88;33.45;;;7.20;99.90;;;;;;5117098;27;20050;-80
2022/12/19 11:34:24;;;;;;;64.00;32.72;;;7.20;99.90;;;;;;5108045;27;20035;-77
2022/12/19 11:37:16;;;;;;;43.03;23.60;;;7.20;99.90;;;;;;5115095;27;20046;-77
2022/12/19 11:39:56;;;;;;;82.50;42.35;;;7.20;99.90;;;;;;5127653;27;20047;-76
2022/12/19 11:42:33;;;;;;;61.72;36.28;;;7.30;99.90;;;;;;5117191;27;20042;-76
2022/12/19 11:44:58;;;;;;;48.33;25.67;;;7.30;99.90;;;;;;5132929;27;20484;-79
2022/12/19 11:47:39;;;;;;;56.15;31.90;;;7.30;99.90;;;;;;5133732;27;20053;-76
2022/12/19 11:50:21;;;;;;;46.20;26.13;;;7.40;99.90;;;;;;5119050;27;20046;-76
2022/12/19 11:52:51;;;;;;;54.10;26.98;;;7.30;99.90;;;;;;5103818;27;20051;-77
2022/12/19 11:55:24;;;;;;;40.65;23.88;;;7.30;99.90;;;;;;5133233;27;20214;-77
2022/12/19 11:57:52;;;;;;;45.10;24.58;;;7.40;99.90;;;;;;5113247;27;20050;-78
2022/12/19 12:00:20;;;;;;;53.22;26.25;;;7.40;99.90;;;;;;5115788;27;20092;-79
2022/12/19 12:03:05;;;;;;;45.80;25.10;;;7.50;99.90;;;;;;5127890;27;20512;-80
2022/12/19 12:05:48;;;;;;;64.07;29.20;;;7.50;99.90;;;;;;5133740;27;20480;-79
2022/12/19 12:08:38;;;;;;;39.80;23.38;;;7.40;99.90;;;;;;5133022;27;20046;-78
2022/12/19 12:11:42;;;;;;;53.38;26.38;;;7.50;99.90;;;;;;5130370;27;20496;-79
2022/12/19 12:14:26;;;;;;;41.25;23.00;;;7.50;99.90;;;;;;5115353;27;20156;-77
2022/12/19 12:16:52;;;;;;;43.47;23.50;;;7.50;99.90;;;;;;5130834;27;20038;-77
2022/12/19 12:19:38;;;;;;;46.20;25.10;;;7.50;99.90;;;;;;5129433;27;20368;-77
2022/12/19 12:22:30;;;;;;;55.85;27.83;;;7.50;99.90;;;;;;5124247;27;20116;-81
2022/12/19 12:25:14;;;;;;;48.95;25.75;;;7.50;99.90;;;;;;5124029;27;20051;-78
2022/12/19 12:28:14;;;;;;;50.40;26.23;;;7.50;99.90;;;;;;5130056;27;20050;-77
2022/12/19 12:31:08;;;;;;;46.08;23.05;;;7.50;99.90;;;;;;5132786;27;20065;-77
2022/12/19 12:33:44;;;;;;;43.90;24.55;;;7.50;99.90;;;;;;5132217;27;20600;-77
2022/12/19 12:36:20;;;;;;;44.88;25.42;;;7.60;99.90;;;;;;5115254;27;20054;-77
2022/12/19 12:39:00;;;;;;;38.90;22.42;;;7.60;99.90;;;;;;5137823;27;20082;-77
2022/12/19 12:42:03;;;;;;;51.20;26.38;;;7.60;99.90;;;;;;5131018;27;20126;-77
2022/12/19 12:44:40;;;;;;;41.15;23.77;;;7.60;99.90;;;;;;5117985;27;20500;-77
2022/12/19 12:47:15;;;;;;;39.50;24.02;;;7.60;99.90;;;;;;5123867;27;20067;-82
2022/12/19 12:49:53;;;;;;;41.92;23.90;;;7.70;99.90;;;;;;5126077;27;20084;-77
2022/12/19 12:52:42;;;;;;;38.08;22.13;;;7.70;99.90;;;;;;5118749;27;20057;-78
2022/12/19 12:55:36;;;;;;;44.95;25.15;;;7.70;99.90;;;;;;5133584;27;20396;-84
2022/12/19 12:58:02;;;;;;;40.47;25.05;;;7.70;99.90;;;;;;5114614;27;20050;-77
2022/12/19 13:00:29;;;;;;;40.75;24.35;;;7.70;99.90;;;;;;5114627;27;20050;-77
2022/12/19 13:03:09;;;;;;;49.17;29.60;;;7.70;99.90;;;;;;5097585;27;20050;-78